createdAt,value
2023-03-21T00:02:13.699Z,237.60
2023-03-21T00:04:52.288Z,245.10
2023-03-21T00:07:22.420Z,210.90
2023-03-21T00:09:52.400Z,175.00
2023-03-21T00:12:26.075Z,150.00
2023-03-21T00:14:56.474Z,149.60
2023-03-21T00:17:25.528Z,138.50
2023-03-21T00:19:54.724Z,142.90
2023-03-21T00:22:23.877Z,127.50
2023-03-21T00:24:53.017Z,101.90
2023-03-21T00:27:44.887Z,129.90
2023-03-21T00:30:12.333Z,109.50
2023-03-21T00:32:54.999Z,100.80
2023-03-21T00:38:19.997Z,89.40
2023-03-21T00:40:49.403Z,134.50
2023-03-21T00:43:19.604Z,109.40
2023-03-21T00:45:48.406Z,109.80
2023-03-21T00:48:19.220Z,103.40
2023-03-21T00:50:48.030Z,112.90
2023-03-21T00:53:17.350Z,113.20
2023-03-21T00:55:51.588Z,104.00
2023-03-21T00:58:23.776Z,97.40
2023-03-21T01:00:52.278Z,89.40
2023-03-21T01:03:25.155Z,85.60
2023-03-21T01:06:07.356Z,79.40
2023-03-21T01:08:51.747Z,60.60
2023-03-21T01:11:23.536Z,66.00
2023-03-21T01:13:59.729Z,81.60
2023-03-21T01:16:36.763Z,70.70
2023-03-21T01:19:09.448Z,78.70
2023-03-21T01:21:41.216Z,74.40
2023-03-21T01:24:09.959Z,75.20
2023-03-21T01:26:39.355Z,67.80
2023-03-21T01:29:08.394Z,70.00
2023-03-21T01:31:39.135Z,63.70
2023-03-21T01:34:08.895Z,60.50
2023-03-21T01:36:38.080Z,52.30
2023-03-21T01:39:10.726Z,60.70
2023-03-21T01:41:44.002Z,64.40
2023-03-21T01:44:31.826Z,57.20
2023-03-21T01:47:10.548Z,68.50
2023-03-21T01:49:46.395Z,58.90
2023-03-21T01:52:37.518Z,64.00
2023-03-21T01:55:12.560Z,70.80
2023-03-21T01:58:04.910Z,75.10
2023-03-21T02:00:41.704Z,55.90
2023-03-21T02:03:33.299Z,62.20
2023-03-21T02:06:37.681Z,67.00
2023-03-21T02:09:15.124Z,55.50
2023-03-21T02:11:51.207Z,63.20
2023-03-21T02:14:29.066Z,78.00
2023-03-21T02:17:18.946Z,72.40
2023-03-21T02:20:13.562Z,73.90
2023-03-21T02:23:02.117Z,65.10
2023-03-21T02:25:56.535Z,60.70
2023-03-21T02:28:30.621Z,68.30
2023-03-21T02:31:22.060Z,76.00
2023-03-21T02:34:10.466Z,81.20
2023-03-21T02:36:56.429Z,82.90
2023-03-21T02:39:28.380Z,65.20
2023-03-21T02:42:27.501Z,78.00
2023-03-21T02:45:31.395Z,70.70
2023-03-21T02:48:04.802Z,80.00
2023-03-21T02:50:43.774Z,78.80
2023-03-21T02:53:15.028Z,63.50
2023-03-21T02:55:44.433Z,56.30
2023-03-21T02:58:16.898Z,65.30
2023-03-21T03:00:49.928Z,57.90
2023-03-21T03:03:34.604Z,60.10
2023-03-21T03:06:19.314Z,57.60
2023-03-21T03:09:23.483Z,55.40
2023-03-21T03:11:56.404Z,53.00
2023-03-21T03:15:02.698Z,60.60
2023-03-21T03:17:48.352Z,56.90
2023-03-21T03:20:33.424Z,58.90
2023-03-21T03:23:28.742Z,54.50
2023-03-21T03:26:10.758Z,45.00
2023-03-21T03:28:41.652Z,53.60
2023-03-21T03:31:16.246Z,57.20
2023-03-21T03:33:52.258Z,61.60
2023-03-21T03:36:31.516Z,56.20
2023-03-21T03:39:07.463Z,65.30
2023-03-21T03:42:21.735Z,49.40
2023-03-21T03:44:42.674Z,49.80
2023-03-21T03:47:33.710Z,62.80
2023-03-21T03:50:09.847Z,56.80
2023-03-21T03:52:55.363Z,56.80
2023-03-21T03:55:34.869Z,42.90
2023-03-21T03:58:21.680Z,63.30
2023-03-21T04:00:52.665Z,62.90
2023-03-21T04:03:24.668Z,49.50
2023-03-21T04:05:54.289Z,62.80
2023-03-21T04:08:23.545Z,57.30
2023-03-21T04:13:24.619Z,62.90
2023-03-21T04:16:19.562Z,69.10
2023-03-21T04:18:49.299Z,82.80
2023-03-21T04:21:21.843Z,64.20
2023-03-21T04:23:51.122Z,53.10
2023-03-21T04:26:23.119Z,67.40
2023-03-21T04:29:09.113Z,54.50
2023-03-21T04:31:56.723Z,56.10
2023-03-21T04:34:28.409Z,50.40
2023-03-21T04:37:00.175Z,50.00
2023-03-21T04:39:29.085Z,48.20
2023-03-21T04:41:57.818Z,54.60
2023-03-21T04:44:26.721Z,37.80
2023-03-21T04:46:55.366Z,55.50
2023-03-21T04:49:24.046Z,39.10
2023-03-21T04:51:52.810Z,50.70
2023-03-21T04:54:21.773Z,51.40
2023-03-21T04:56:57.305Z,51.40
2023-03-21T04:59:28.878Z,44.20
2023-03-21T05:01:58.829Z,38.00
2023-03-21T05:04:27.889Z,47.50
2023-03-21T05:06:58.216Z,62.90
2023-03-21T05:09:28.145Z,46.40
2023-03-21T05:11:56.974Z,45.70
2023-03-21T05:14:26.398Z,50.90
2023-03-21T05:16:57.617Z,39.10
2023-03-21T05:19:35.508Z,39.90
2023-03-21T05:22:06.619Z,46.90
2023-03-21T05:24:39.530Z,45.40
2023-03-21T05:27:14.446Z,40.00
2023-03-21T05:29:46.766Z,52.70
2023-03-21T05:32:15.516Z,44.50
2023-03-21T05:34:44.502Z,47.50
2023-03-21T05:37:14.028Z,44.80
2023-03-21T05:39:48.860Z,46.30
2023-03-21T05:42:30.021Z,53.50
2023-03-21T05:44:58.586Z,50.60
2023-03-21T05:47:34.814Z,53.40
2023-03-21T05:50:07.107Z,53.70
2023-03-21T05:52:36.311Z,48.90
2023-03-21T05:55:15.566Z,49.60
2023-03-21T05:57:44.824Z,41.00
2023-03-21T06:00:22.403Z,41.70
2023-03-21T06:02:57.114Z,42.20
2023-03-21T06:05:48.927Z,63.00
2023-03-21T06:08:23.798Z,42.90
2023-03-21T06:10:55.832Z,48.40
2023-03-21T06:13:25.530Z,46.30
2023-03-21T06:15:56.475Z,45.60
2023-03-21T06:18:29.531Z,49.20
2023-03-21T06:21:12.621Z,47.30
2023-03-21T06:23:42.637Z,47.50
2023-03-21T06:26:13.422Z,52.10
2023-03-21T06:28:42.637Z,40.60
2023-03-21T06:31:11.739Z,40.80
2023-03-21T06:33:41.254Z,42.90
2023-03-21T06:36:10.394Z,45.10
2023-03-21T06:38:39.805Z,50.90
2023-03-21T06:41:08.971Z,34.30
2023-03-21T06:43:46.454Z,54.40
2023-03-21T06:46:15.523Z,46.40
2023-03-21T06:48:46.918Z,49.80
2023-03-21T06:51:19.059Z,41.70
2023-03-21T06:54:09.104Z,40.10
2023-03-21T06:56:48.446Z,41.60
2023-03-21T06:59:22.550Z,67.10
2023-03-21T07:02:11.717Z,48.80
2023-03-21T07:04:51.170Z,36.50
2023-03-21T07:07:26.522Z,38.10
2023-03-21T07:10:11.624Z,41.20
2023-03-21T07:12:52.398Z,43.40
2023-03-21T07:15:30.677Z,57.20
2023-03-21T07:17:59.807Z,40.30
2023-03-21T07:20:28.977Z,36.90
2023-03-21T07:22:58.631Z,55.40
2023-03-21T07:25:31.251Z,40.80
2023-03-21T07:28:00.888Z,49.80
2023-03-21T07:30:29.665Z,54.70
2023-03-21T07:32:58.763Z,54.00
2023-03-21T07:35:27.453Z,45.30
2023-03-21T07:37:56.594Z,32.70
2023-03-21T07:40:25.474Z,46.00
2023-03-21T07:42:54.558Z,41.80
2023-03-21T07:45:35.663Z,42.10
2023-03-21T07:48:06.989Z,43.60
2023-03-21T07:50:35.918Z,47.40
2023-03-21T07:53:08.293Z,43.80
2023-03-21T07:55:38.018Z,38.10
2023-03-21T08:00:39.367Z,46.70
2023-03-21T08:03:08.092Z,49.70
2023-03-21T08:05:41.715Z,53.40
2023-03-21T08:08:10.674Z,45.10
2023-03-21T08:10:39.415Z,41.40
2023-03-21T08:13:08.721Z,46.40
2023-03-21T08:15:42.595Z,34.20
2023-03-21T08:18:11.708Z,41.50
2023-03-21T08:20:42.620Z,49.80
2023-03-21T08:23:12.072Z,33.70
2023-03-21T08:25:41.493Z,50.00
2023-03-21T08:28:10.903Z,38.70
2023-03-21T08:30:39.796Z,41.70
2023-03-21T08:33:13.496Z,33.20
2023-03-21T08:35:47.073Z,46.30
2023-03-21T08:38:17.669Z,43.90
2023-03-21T08:40:46.430Z,36.30
2023-03-21T08:43:16.671Z,38.80
2023-03-21T08:45:45.489Z,59.00
2023-03-21T08:48:21.290Z,37.10
2023-03-21T08:50:50.764Z,44.80
2023-03-21T08:53:19.706Z,40.30
2023-03-21T08:55:50.167Z,44.30
2023-03-21T08:58:18.718Z,35.10
2023-03-21T09:00:47.300Z,44.10
2023-03-21T09:03:16.605Z,41.30
2023-03-21T09:05:48.051Z,41.50
2023-03-21T09:08:17.040Z,45.20
2023-03-21T09:10:45.744Z,34.20
2023-03-21T09:13:17.127Z,60.70
2023-03-21T09:15:46.756Z,51.60
2023-03-21T09:18:23.462Z,35.30
2023-03-21T09:20:55.755Z,34.60
2023-03-21T09:23:25.535Z,38.70
2023-03-21T09:25:54.240Z,35.50
2023-03-21T09:28:25.262Z,41.20
2023-03-21T09:30:55.678Z,46.00
2023-03-21T09:33:26.154Z,46.10
2023-03-21T09:35:55.440Z,35.50
2023-03-21T09:38:30.756Z,31.20
2023-03-21T09:41:20.245Z,50.80
2023-03-21T09:44:28.495Z,27.80
2023-03-21T09:47:29.501Z,36.00
2023-03-21T09:50:14.160Z,40.00
2023-03-21T09:53:01.921Z,38.70
2023-03-21T09:55:32.323Z,37.10
2023-03-21T09:58:26.438Z,37.20
2023-03-21T10:04:06.648Z,32.20
2023-03-21T10:06:39.366Z,42.60
2023-03-21T10:09:23.078Z,26.70
2023-03-21T10:12:08.489Z,21.90
2023-03-21T10:14:40.541Z,29.30
2023-03-21T10:17:18.299Z,30.10
2023-03-21T10:19:48.322Z,28.60
2023-03-21T10:22:20.288Z,36.50
2023-03-21T10:24:49.141Z,27.80
2023-03-21T10:27:18.221Z,25.20
2023-03-21T10:29:47.452Z,30.40
2023-03-21T10:32:17.097Z,29.80
2023-03-21T10:34:50.927Z,33.60
2023-03-21T10:37:19.791Z,34.80
2023-03-21T10:39:53.808Z,32.30
2023-03-21T10:42:28.612Z,24.10
2023-03-21T10:45:00.409Z,25.60
2023-03-21T10:47:34.318Z,19.80
2023-03-21T10:50:08.115Z,32.50
2023-03-21T10:52:46.493Z,22.90
2023-03-21T10:55:32.380Z,25.90
2023-03-21T10:58:08.869Z,24.10
2023-03-21T11:00:41.550Z,31.90
2023-03-21T11:03:23.082Z,27.00
2023-03-21T11:05:57.914Z,30.40
2023-03-21T11:08:27.754Z,27.50
2023-03-21T11:11:08.465Z,23.10
2023-03-21T11:13:43.130Z,23.80
2023-03-21T11:16:33.497Z,29.80
2023-03-21T11:19:34.089Z,21.90
2023-03-21T11:22:06.801Z,35.40
2023-03-21T11:24:38.058Z,21.10
2023-03-21T11:27:07.613Z,19.10
2023-03-21T11:29:39.271Z,20.10
2023-03-21T11:35:04.662Z,23.50
2023-03-21T11:37:38.512Z,23.60
2023-03-21T11:40:40.097Z,19.70
2023-03-21T11:43:18.297Z,18.40
2023-03-21T11:46:05.567Z,17.40
2023-03-21T11:48:38.849Z,19.30
2023-03-21T11:51:30.754Z,19.00
2023-03-21T11:54:19.994Z,17.20
2023-03-21T11:56:54.534Z,20.20
2023-03-21T11:59:40.899Z,19.40
2023-03-21T12:02:55.316Z,17.40
2023-03-21T12:05:27.127Z,19.50
2023-03-21T12:07:58.957Z,19.70
2023-03-21T12:10:50.202Z,13.50
2023-03-21T12:13:56.044Z,16.40
2023-03-21T12:16:37.188Z,16.90
2023-03-21T12:19:31.108Z,14.10
2023-03-21T12:22:18.351Z,16.70
2023-03-21T12:24:50.110Z,20.10
2023-03-21T12:27:43.537Z,21.50
2023-03-21T12:30:41.491Z,17.50
2023-03-21T12:33:21.060Z,18.40
2023-03-21T12:36:11.553Z,17.30
2023-03-21T12:38:47.822Z,14.00
2023-03-21T12:41:27.653Z,18.30
2023-03-21T12:44:12.107Z,13.80
2023-03-21T12:47:20.051Z,13.40
2023-03-21T12:50:21.625Z,15.30
2023-03-21T12:52:54.753Z,15.20
2023-03-21T12:55:26.746Z,14.70
2023-03-21T12:58:10.738Z,15.40
2023-03-21T13:00:44.154Z,17.70
2023-03-21T13:03:40.129Z,17.70
2023-03-21T13:06:10.894Z,15.60
2023-03-21T13:08:48.979Z,18.30
2023-03-21T13:11:23.224Z,13.70
2023-03-21T13:14:17.050Z,14.90
2023-03-21T13:17:01.300Z,17.90
2023-03-21T13:19:39.318Z,17.40
2023-03-21T13:22:21.590Z,19.00
2023-03-21T13:24:52.469Z,18.60
2023-03-21T13:27:34.882Z,22.20
2023-03-21T13:30:09.899Z,20.10
2023-03-21T13:32:39.994Z,16.00
2023-03-21T13:35:34.835Z,15.70
2023-03-21T13:38:15.069Z,14.90
2023-03-21T13:40:44.678Z,14.30
2023-03-21T13:43:55.478Z,14.00
2023-03-21T13:46:25.325Z,17.70
2023-03-21T13:49:00.201Z,18.20
2023-03-21T13:51:31.180Z,20.60
2023-03-21T13:54:10.000Z,21.20
2023-03-21T13:56:48.822Z,20.40
2023-03-21T13:59:18.962Z,17.30
2023-03-21T14:02:16.203Z,15.70
2023-03-21T14:05:03.754Z,15.30
2023-03-21T14:07:42.177Z,16.70
2023-03-21T14:10:38.906Z,18.10
2023-03-21T14:13:10.096Z,17.40
2023-03-21T14:15:49.722Z,15.60
2023-03-21T14:18:35.104Z,15.40
2023-03-21T14:21:23.347Z,36.10
2023-03-21T14:24:05.777Z,32.90
2023-03-21T14:26:36.732Z,158.10
2023-03-21T14:29:25.265Z,83.40
2023-03-21T14:31:56.832Z,71.10
2023-03-21T14:34:31.529Z,43.60
2023-03-21T14:37:03.178Z,25.40
2023-03-21T14:39:33.575Z,24.70
2023-03-21T14:42:07.560Z,36.10
2023-03-21T14:44:54.488Z,36.70
2023-03-21T14:47:26.261Z,28.40
2023-03-21T14:49:55.942Z,36.20
2023-03-21T14:52:31.310Z,26.40
2023-03-21T14:55:03.735Z,22.50
2023-03-21T14:57:33.991Z,27.20
2023-03-21T15:00:16.051Z,29.20
2023-03-21T15:02:46.582Z,18.70
2023-03-21T15:05:32.000Z,20.50
2023-03-21T15:08:29.587Z,23.30
2023-03-21T15:11:10.882Z,22.20
2023-03-21T15:13:52.806Z,23.40
2023-03-21T15:16:22.016Z,23.40
2023-03-21T15:18:51.005Z,23.50
2023-03-21T15:21:31.052Z,23.80
2023-03-21T15:24:08.643Z,18.20
2023-03-21T15:26:46.981Z,15.40
2023-03-21T15:29:16.476Z,17.70
2023-03-21T15:31:47.516Z,19.50
2023-03-21T15:34:24.528Z,16.40
2023-03-21T15:37:07.362Z,21.20
2023-03-21T15:39:46.292Z,15.70
2023-03-21T15:42:51.103Z,16.60
2023-03-21T15:45:25.852Z,16.50
2023-03-21T15:48:03.365Z,17.00
2023-03-21T15:50:33.689Z,19.30
2023-03-21T15:53:06.038Z,15.40
2023-03-21T15:55:43.067Z,21.10
2023-03-21T15:58:18.994Z,20.00
2023-03-21T16:00:52.686Z,38.30
2023-03-21T16:03:25.186Z,79.70
2023-03-21T16:06:10.936Z,65.70
2023-03-21T16:08:50.513Z,63.00
2023-03-21T16:11:27.152Z,41.80
2023-03-21T16:13:56.579Z,38.00
2023-03-21T16:16:27.094Z,27.90
2023-03-21T16:19:02.798Z,21.10
2023-03-21T16:21:34.531Z,20.90
2023-03-21T16:24:03.311Z,20.00
2023-03-21T16:26:33.852Z,26.00
2023-03-21T16:29:02.635Z,19.00
2023-03-21T16:31:35.915Z,21.20
2023-03-21T16:34:08.284Z,18.30
2023-03-21T16:36:38.743Z,17.80
2023-03-21T16:39:19.707Z,16.30
2023-03-21T16:41:48.641Z,19.50
2023-03-21T16:44:17.471Z,24.40
2023-03-21T16:46:47.537Z,21.40
2023-03-21T16:49:24.955Z,20.90
2023-03-21T16:51:54.777Z,29.70
2023-03-21T16:54:23.774Z,34.70
2023-03-21T16:56:53.877Z,27.80
2023-03-21T16:59:22.619Z,33.60
2023-03-21T17:01:52.489Z,39.40
2023-03-21T17:04:22.278Z,29.30
2023-03-21T17:06:52.597Z,25.80
2023-03-21T17:09:23.435Z,33.20
2023-03-21T17:11:53.127Z,36.00
2023-03-21T17:14:23.500Z,35.00
2023-03-21T17:16:52.138Z,45.20
2023-03-21T17:19:26.502Z,74.50
2023-03-21T17:21:55.554Z,65.00
2023-03-21T17:24:26.495Z,54.30
2023-03-21T17:26:55.737Z,40.30
2023-03-21T17:29:24.629Z,35.60
2023-03-21T17:31:55.063Z,28.90
2023-03-21T17:34:24.172Z,34.10
2023-03-21T17:36:56.635Z,31.00
2023-03-21T17:39:25.986Z,32.70
2023-03-21T17:41:55.024Z,26.00
2023-03-21T17:44:23.620Z,34.70
2023-03-21T17:46:54.808Z,29.20
2023-03-21T17:49:23.728Z,27.20
2023-03-21T17:51:53.773Z,30.00
2023-03-21T17:54:22.689Z,32.70
2023-03-21T17:56:51.826Z,35.00
2023-03-21T17:59:20.614Z,39.60
2023-03-21T18:01:56.250Z,33.20
2023-03-21T18:04:25.485Z,27.60
2023-03-21T18:06:57.482Z,29.00
2023-03-21T18:09:28.800Z,32.00
2023-03-21T18:11:59.030Z,22.00
2023-03-21T18:14:29.167Z,34.30
2023-03-21T18:16:59.380Z,32.90
2023-03-21T18:19:28.684Z,31.00
2023-03-21T18:22:04.228Z,33.00
2023-03-21T18:24:33.166Z,32.10
2023-03-21T18:27:03.307Z,28.30
2023-03-21T18:32:23.294Z,31.90
2023-03-21T18:34:52.324Z,26.60
2023-03-21T18:37:22.111Z,27.40
2023-03-21T18:39:51.874Z,32.70
2023-03-21T18:42:23.561Z,36.50
2023-03-21T18:44:52.824Z,70.80
2023-03-21T18:47:21.717Z,33.80
2023-03-21T18:52:41.606Z,30.60
2023-03-21T18:55:10.662Z,30.40
2023-03-21T18:57:40.876Z,34.50
2023-03-21T19:00:17.375Z,39.20
2023-03-21T19:02:49.099Z,32.40
2023-03-21T19:05:22.980Z,29.40
2023-03-21T19:07:52.567Z,50.70
2023-03-21T19:10:23.132Z,29.30
2023-03-21T19:12:53.089Z,42.10
2023-03-21T19:15:24.417Z,36.80
2023-03-21T19:20:48.024Z,41.40
2023-03-21T19:23:18.775Z,41.40
2023-03-21T19:25:47.825Z,47.60
2023-03-21T19:28:16.862Z,41.00
2023-03-21T19:30:50.288Z,46.40
2023-03-21T19:33:24.732Z,35.10
2023-03-21T19:36:09.190Z,40.90
2023-03-21T19:38:42.115Z,42.20
2023-03-21T19:41:11.280Z,42.60
2023-03-21T19:43:40.307Z,47.80
2023-03-21T19:46:14.932Z,49.00
2023-03-21T19:48:45.194Z,35.20
2023-03-21T19:51:27.552Z,42.00
2023-03-21T19:53:59.350Z,32.60
2023-03-21T19:56:28.241Z,38.50
2023-03-21T19:58:57.165Z,38.90
2023-03-21T20:01:26.931Z,34.80
2023-03-21T20:03:57.689Z,36.30
2023-03-21T20:06:28.573Z,35.20
2023-03-21T20:09:42.898Z,30.50
2023-03-21T20:11:48.545Z,27.80
2023-03-21T20:14:17.754Z,31.60
2023-03-21T20:16:46.896Z,33.30
2023-03-21T20:19:17.310Z,35.20
2023-03-21T20:21:56.911Z,36.30
2023-03-21T20:24:36.937Z,35.40
2023-03-21T20:27:06.476Z,36.10
2023-03-21T20:32:30.407Z,29.80
2023-03-21T20:35:13.731Z,48.20
2023-03-21T20:37:54.141Z,46.30
2023-03-21T20:40:23.275Z,34.60
2023-03-21T20:42:52.222Z,38.40
2023-03-21T20:45:21.310Z,53.40
2023-03-21T20:47:50.202Z,51.00
2023-03-21T20:50:27.893Z,40.00
2023-03-21T20:53:06.835Z,43.00
2023-03-21T20:55:36.857Z,41.80
2023-03-21T20:58:26.880Z,31.10
2023-03-21T21:00:54.654Z,37.30
2023-03-21T21:03:26.008Z,33.10
2023-03-21T21:05:55.153Z,33.40
2023-03-21T21:08:27.558Z,27.20
2023-03-21T21:11:45.460Z,26.70
2023-03-21T21:13:45.797Z,28.10
2023-03-21T21:16:17.254Z,24.90
2023-03-21T21:18:49.746Z,33.20
2023-03-21T21:21:18.249Z,43.30
2023-03-21T21:23:54.556Z,35.70
2023-03-21T21:26:23.195Z,29.00
2023-03-21T21:28:53.456Z,26.20
2023-03-21T21:31:22.517Z,25.60
2023-03-21T21:33:54.285Z,33.70
2023-03-21T21:36:28.281Z,25.90
2023-03-21T21:38:57.111Z,28.40
2023-03-21T21:41:26.210Z,24.20
2023-03-21T21:43:55.720Z,24.50
2023-03-21T21:46:24.522Z,29.20
2023-03-21T21:48:59.784Z,28.80
2023-03-21T21:51:29.123Z,26.30
2023-03-21T21:53:58.314Z,22.10
2023-03-21T21:56:32.281Z,29.00
2023-03-21T21:59:02.217Z,20.00
2023-03-21T22:01:34.974Z,23.70
2023-03-21T22:04:08.388Z,30.10
2023-03-21T22:06:41.625Z,31.40
2023-03-21T22:09:11.162Z,32.50
2023-03-21T22:11:39.716Z,27.30
2023-03-21T22:14:08.307Z,31.20
2023-03-21T22:16:37.125Z,26.90
2023-03-21T22:19:06.444Z,31.60
2023-03-21T22:21:35.163Z,27.50
2023-03-21T22:24:07.442Z,34.20
2023-03-21T22:26:36.425Z,34.90
2023-03-21T22:29:10.259Z,37.40
2023-03-21T22:31:42.185Z,52.90
2023-03-21T22:36:47.182Z,45.50
2023-03-21T22:39:18.860Z,39.70
2023-03-21T22:41:49.145Z,44.00
2023-03-21T22:44:18.629Z,42.20
2023-03-21T22:46:47.242Z,34.10
2023-03-21T22:49:18.127Z,29.10
2023-03-21T22:52:22.121Z,42.50
2023-03-21T22:54:52.237Z,32.40
2023-03-21T22:57:23.850Z,30.20
2023-03-21T22:59:52.762Z,33.10
2023-03-21T23:02:21.677Z,37.40
2023-03-21T23:04:51.078Z,32.60
2023-03-21T23:07:22.630Z,38.90
2023-03-21T23:09:51.668Z,36.90
2023-03-21T23:12:21.108Z,25.20
2023-03-21T23:14:53.847Z,30.90
2023-03-21T23:17:23.797Z,34.50
2023-03-21T23:19:52.650Z,30.20
2023-03-21T23:22:29.071Z,29.90
2023-03-21T23:24:58.778Z,24.50
2023-03-21T23:27:31.024Z,38.10
2023-03-21T23:30:00.465Z,35.60
2023-03-21T23:32:31.386Z,29.60
2023-03-21T23:35:00.202Z,29.40
2023-03-21T23:37:32.986Z,38.00
2023-03-21T23:40:01.623Z,27.20
2023-03-21T23:42:30.953Z,25.90
2023-03-21T23:44:59.959Z,25.20
2023-03-21T23:47:32.428Z,31.30
2023-03-21T23:50:01.466Z,31.60
2023-03-21T23:52:30.372Z,54.80
2023-03-21T23:54:59.097Z,47.30
2023-03-21T23:57:27.797Z,56.00
2023-03-21T23:59:57.974Z,53.40
